Boston, Massachusetts
Current Conditions -  °F | °C
As of 8:54 PM on Friday 24 Oct 2014 (Local Time) from KBOS Reporting Station
Overcast Overcast  
Wind Chill: 43°   Ceiling: 3800
Heat Index: 49°   Visibility: 10mi
Dew Point: 41°   Wind: 15mph
Humidity: 74%   Direction: 320°NW
Pressure: 29.74"   Gusts: 20mph
Location:  42.36°N, 71.06°W
Report Text: KBOS 250054Z 32013G17KT 10SM FEW025 BKN038 OVC090 09/05 A2974 RMK AO2 SLP070 T00940050
Loading
Personal Weather Stations






























Interactive Weather Map
Tropical Storm Tracking
New forecast layout! Learn more

10-Day Weather Forecast

Advertisements
Track Severe Weather on mobile